createdAt,value
2016-12-05T00:01:19.385Z,278
2016-12-05T00:07:17.512Z,277.8
2016-12-05T00:13:18.015Z,278.5
2016-12-05T00:19:17.295Z,277.8
2016-12-05T00:25:17.328Z,277.5
2016-12-05T00:31:19.657Z,277.6
2016-12-05T00:37:17.265Z,278
2016-12-05T00:43:17.654Z,277.2
2016-12-05T00:49:17.743Z,277.4
2016-12-05T00:55:17.525Z,277.8
2016-12-05T01:01:20.047Z,277.3
2016-12-05T01:07:17.998Z,277.6
2016-12-05T01:13:17.589Z,277.2
2016-12-05T01:19:17.820Z,277.2
2016-12-05T01:25:18.001Z,277.2
2016-12-05T01:31:18.896Z,277.1
2016-12-05T01:37:18.234Z,277
2016-12-05T01:43:17.732Z,277.6
2016-12-05T01:49:17.401Z,276.9
2016-12-05T01:55:17.997Z,276.9
2016-12-05T02:01:18.552Z,277
2016-12-05T02:07:17.826Z,277
2016-12-05T02:13:17.402Z,276.4
2016-12-05T02:19:18.020Z,276.7
2016-12-05T02:25:18.305Z,276.8
2016-12-05T02:31:20.504Z,276.7
2016-12-05T02:37:17.798Z,276.8
2016-12-05T02:43:17.358Z,276.3
2016-12-05T02:49:17.209Z,277.2
2016-12-05T02:55:17.755Z,276.5
2016-12-05T03:01:19.527Z,276.6
2016-12-05T03:07:17.561Z,276.6
2016-12-05T03:13:17.091Z,275.9
2016-12-05T03:19:17.448Z,277.3
2016-12-05T03:25:17.947Z,276.4
2016-12-05T03:31:19.604Z,276.4
2016-12-05T03:37:17.911Z,277.4
2016-12-05T03:43:17.631Z,275.8
2016-12-05T03:49:18.063Z,275.8
2016-12-05T03:55:18.183Z,275.7
2016-12-05T04:01:18.924Z,275.2
2016-12-05T04:07:17.516Z,275.2
2016-12-05T04:13:17.263Z,275.8
2016-12-05T04:19:18.087Z,275.5
2016-12-05T04:25:17.512Z,276.5
2016-12-05T04:31:19.577Z,276.4
2016-12-05T04:42:17.490Z,275.9
2016-12-05T04:53:17.418Z,275.1
2016-12-05T05:04:17.582Z,275.3
2016-12-05T05:15:17.687Z,275.2
2016-12-05T05:26:19.569Z,274.8
2016-12-05T05:37:17.838Z,274.4
2016-12-05T05:48:17.212Z,274.5
2016-12-05T05:59:18.562Z,274.1
2016-12-05T06:10:18.733Z,274.1
2016-12-05T06:21:19.233Z,273.9
2016-12-05T06:32:17.677Z,274.1
2016-12-05T06:43:18.088Z,274.7
2016-12-05T06:54:17.872Z,274
2016-12-05T07:05:17.352Z,273.6
2016-12-05T07:16:19.494Z,276.8
2016-12-05T07:27:18.239Z,277.7
2016-12-05T07:38:17.934Z,276
2016-12-05T07:49:17.783Z,277.1
2016-12-05T08:00:18.270Z,277.3
2016-12-05T08:11:19.954Z,278.3
2016-12-05T08:22:17.808Z,277.7
2016-12-05T08:33:18.319Z,277.2
2016-12-05T08:44:17.400Z,278.2
2016-12-05T08:55:18.193Z,278.7
2016-12-05T09:06:19.176Z,278.9
2016-12-05T09:17:17.888Z,279.1
2016-12-05T09:28:17.272Z,279.1
2016-12-05T09:39:17.730Z,290.6
2016-12-05T09:50:18.362Z,278.8
2016-12-05T10:01:19.240Z,280.4
2016-12-05T10:12:17.739Z,280.5
2016-12-05T10:23:17.156Z,278.7
2016-12-05T10:34:18.291Z,279
2016-12-05T10:45:17.103Z,276.4
2016-12-05T10:56:19.040Z,278.2
2016-12-05T11:07:17.507Z,276.9
2016-12-05T11:18:17.463Z,279.6
2016-12-05T11:29:17.562Z,277.5
2016-12-05T11:40:19.048Z,279.8
2016-12-05T11:51:19.718Z,280.8
2016-12-05T12:02:17.034Z,282.1
2016-12-05T12:13:17.953Z,280.9
2016-12-05T12:24:17.002Z,280.4
2016-12-05T12:35:17.213Z,280.5
2016-12-05T12:46:20.167Z,276.7
2016-12-05T12:57:16.994Z,277.3
2016-12-05T13:08:17.597Z,275.8
2016-12-05T13:19:17.147Z,278.5
2016-12-05T13:30:17.926Z,277.3
2016-12-05T13:41:19.873Z,275.4
2016-12-05T13:52:17.338Z,276.5
2016-12-05T14:03:17.836Z,278.9
2016-12-05T14:14:17.104Z,276.1
2016-12-05T14:25:18.360Z,277.2
2016-12-05T14:36:19.339Z,275.9
2016-12-05T14:47:17.154Z,276
2016-12-05T14:58:17.986Z,276.7
2016-12-05T15:09:18.600Z,275
2016-12-05T15:20:18.228Z,277.3
2016-12-05T15:31:18.935Z,275.9
2016-12-05T15:42:17.368Z,275.9
2016-12-05T15:53:18.213Z,275.6
2016-12-05T16:04:17.736Z,276.6
2016-12-05T16:15:18.207Z,276.9
2016-12-05T16:26:19.929Z,276
2016-12-05T16:37:17.981Z,276.2
2016-12-05T16:48:16.790Z,276.5
2016-12-05T16:59:18.559Z,275.7
2016-12-05T17:10:18.115Z,275.1
2016-12-05T17:21:20.192Z,275.7
2016-12-05T17:32:18.457Z,275.1
2016-12-05T17:43:17.647Z,272.9
2016-12-05T17:54:17.726Z,265.7
2016-12-05T18:05:18.475Z,271.2
2016-12-05T18:16:19.078Z,271.2
2016-12-05T18:27:17.254Z,258.2
2016-12-05T18:38:17.555Z,257.2
2016-12-05T18:49:17.903Z,270.4
2016-12-05T19:00:18.016Z,273.9
2016-12-05T19:11:19.003Z,273.2
2016-12-05T19:22:17.622Z,274.4
2016-12-05T19:33:17.492Z,274.4
2016-12-05T19:44:17.291Z,276.3
2016-12-05T19:55:17.068Z,277.7
2016-12-05T20:06:19.506Z,277.9
2016-12-05T20:17:17.432Z,277.7
2016-12-05T20:28:17.452Z,278.6
2016-12-05T20:39:17.242Z,278.4
2016-12-05T20:50:17.586Z,278.4
2016-12-05T21:01:19.286Z,278.3
2016-12-05T21:12:17.094Z,278.6
2016-12-05T21:23:17.532Z,278
2016-12-05T21:34:17.736Z,278.3
2016-12-05T21:45:17.116Z,278.1
2016-12-05T21:56:17.748Z,278.1
2016-12-05T22:07:17.084Z,278.1
2016-12-05T22:18:17.452Z,278.5
2016-12-05T22:29:17.503Z,278
2016-12-05T22:40:17.295Z,277.6
2016-12-05T22:51:20.022Z,275.1
2016-12-05T23:02:18.262Z,277.6
2016-12-05T23:13:17.525Z,277
2016-12-05T23:24:17.567Z,277.2
2016-12-05T23:35:17.742Z,276.3
2016-12-05T23:46:16.967Z,275.8
2016-12-05T23:57:17.130Z,276.7
